Brighton, MI

3:32 AM EDT on May 01, 2017 (GMT -0400)
Hunters Ridge | | Change Station

Elev 988 ft 42.58 °N, 83.77 °W | Updated 27 seconds ago

Overcast
Overcast
53.6 °F
Feels Like 53.6 °F
N
3.7
Wind Variable Wind from East

Today
High -- | Low -- °F
--% Chance of Precip.
Yesterday
High -- | Low -- °F
Precip. -- in
Pressure 29.63 in
Visibility 1.8 miles
Clouds Overcast 200 ft
Dew Point 53 °F
Humidity 99%
Rainfall 0.00 in
Snow Depth Not available.
6:29 AM 8:35 PM
Waxing Crescent, 30% visible
METAR KOZW 010714Z AUTO 12008G16KT 1 3/4SM BR OVC002 13/12 A2963 RMK AO2 T01260117
Pressure 29.63 in
Visibility 1.8 miles
Clouds Overcast 200 ft
Dew Point 53 °F
Humidity 99%
Rainfall 0.00 in
Snow Depth Not available.
6:29 AM 8:35 PM
Waxing Crescent, 30% visible
METAR KOZW 010714Z AUTO 12008G16KT 1 3/4SM BR OVC002 13/12 A2963 RMK AO2 T01260117

Get Severe Weather Alerts

Thanks for signing up!

Be on the lookout for a verification email in your inbox.

You'll start receiving the daily forecast at 8 AM.

×

10-Day Weather Forecast

Almanac

Astronomy

May. 01, 2017 Rise Set
Actual Time
Civil Twilight
Nautical Twilight
Astronomical Twilight
Moon
Length of Visible Light
Length of Day
Tomorrow will be .
, % of the Moon is Illuminated

Today's Extremes

State Highs State Lows

Community

WunderPhotos

WunderBlog® & News

Nearby

Air Quality

  Air Quality AQ Index Pollutant
Not available.

Snow Depth

Station Depth Elevation

Earthquake Activity

City Distance Mag. Time & Date
Minimum magnitude displayed is 2.5.

Coastal Water Temperatures

Place Temperature

Stations

Nearby Weather Stations

Station Location Temp. Windchill Dew Point Humidity Wind Precip. Elev Updated Type
                   

Watches & Warnings

There are currently no watches in effect.